createdAt,value
2022-11-16T00:01:59.839Z,98926.41
2022-11-16T00:04:27.760Z,98923.38
2022-11-16T00:06:55.473Z,98920.63
2022-11-16T00:09:23.222Z,98920.44
2022-11-16T00:11:53.685Z,98909.84
2022-11-16T00:14:23.088Z,98918.34
2022-11-16T00:16:51.374Z,98912.63
2022-11-16T00:19:19.473Z,98915.06
2022-11-16T00:21:47.125Z,98907.34
2022-11-16T00:24:16.623Z,98904.56
2022-11-16T00:26:44.491Z,98912.50
2022-11-16T00:29:18.437Z,98904.66
2022-11-16T00:31:47.502Z,98907.22
2022-11-16T00:34:15.092Z,98904.00
2022-11-16T00:36:42.685Z,98898.72
2022-11-16T00:39:12.257Z,98899.25
2022-11-16T00:41:40.298Z,98894.88
2022-11-16T00:44:07.950Z,98890.50
2022-11-16T00:46:35.924Z,98889.03
2022-11-16T00:49:04.251Z,98883.13
2022-11-16T00:51:32.577Z,98880.06
2022-11-16T00:54:01.201Z,98875.22
2022-11-16T00:56:29.175Z,98878.19
2022-11-16T00:58:56.874Z,98870.06
2022-11-16T01:01:24.977Z,98871.47
2022-11-16T01:03:52.889Z,98869.81
2022-11-16T01:06:20.678Z,98869.09
2022-11-16T01:08:48.752Z,98857.16
2022-11-16T01:11:18.309Z,98852.75
2022-11-16T01:13:46.373Z,98845.62
2022-11-16T01:16:16.244Z,98838.50
2022-11-16T01:18:47.799Z,98837.38
2022-11-16T01:21:16.018Z,98827.97
2022-11-16T01:23:43.795Z,98830.22
2022-11-16T01:26:11.548Z,98823.50
2022-11-16T01:28:41.048Z,98824.19
2022-11-16T01:31:10.123Z,98821.69
2022-11-16T01:33:38.205Z,98825.28
2022-11-16T01:36:11.082Z,98819.66
2022-11-16T01:38:38.764Z,98820.53
2022-11-16T01:41:06.758Z,98821.28
2022-11-16T01:43:57.543Z,98812.50
2022-11-16T01:46:27.026Z,98811.41
2022-11-16T01:49:08.090Z,98801.19
2022-11-16T01:51:36.743Z,98798.47
2022-11-16T01:54:07.423Z,98795.28
2022-11-16T01:56:36.999Z,98782.41
2022-11-16T01:59:05.797Z,98779.38
2022-11-16T02:01:33.955Z,98772.72
2022-11-16T02:04:03.374Z,98777.88
2022-11-16T02:06:49.865Z,98766.87
2022-11-16T02:09:39.859Z,98765.97
2022-11-16T02:12:10.630Z,98760.84
2022-11-16T02:15:00.575Z,98757.03
2022-11-16T02:17:53.570Z,98761.34
2022-11-16T02:20:43.623Z,98757.19
2022-11-16T02:23:14.030Z,98753.72
2022-11-16T02:26:03.728Z,98761.84
2022-11-16T02:28:46.428Z,98753.63
2022-11-16T02:31:21.148Z,98752.66
2022-11-16T02:33:49.790Z,98747.06
2022-11-16T02:36:20.927Z,98739.22
2022-11-16T02:38:53.251Z,98742.22
2022-11-16T02:41:22.359Z,98740.03
2022-11-16T02:44:03.512Z,98738.44
2022-11-16T02:46:36.798Z,98734.91
2022-11-16T02:49:10.493Z,98735.81
2022-11-16T02:51:38.911Z,98725.31
2022-11-16T02:54:13.267Z,98726.41
2022-11-16T02:56:43.580Z,98723.50
2022-11-16T02:59:16.522Z,98718.38
2022-11-16T03:02:19.438Z,98718.94
2022-11-16T03:04:49.598Z,98716.75
2022-11-16T03:07:20.583Z,98713.03
2022-11-16T03:09:49.031Z,98710.78
2022-11-16T03:12:19.955Z,98708.84
2022-11-16T03:14:57.042Z,98706.03
2022-11-16T03:17:30.304Z,98695.28
2022-11-16T03:20:14.158Z,98703.59
2022-11-16T03:22:42.951Z,98696.00
2022-11-16T03:25:13.192Z,98697.03
2022-11-16T03:27:59.724Z,98687.75
2022-11-16T03:30:30.056Z,98695.81
2022-11-16T03:33:13.418Z,98692.19
2022-11-16T03:36:05.659Z,98696.44
2022-11-16T03:38:35.690Z,98691.38
2022-11-16T03:41:06.878Z,98684.41
2022-11-16T03:43:35.844Z,98679.56
2022-11-16T03:46:04.888Z,98676.97
2022-11-16T03:48:37.161Z,98676.38
2022-11-16T03:51:08.540Z,98672.63
2022-11-16T03:53:37.248Z,98671.56
2022-11-16T03:56:05.233Z,98670.72
2022-11-16T03:58:33.401Z,98672.25
2022-11-16T04:01:02.283Z,98665.13
2022-11-16T04:03:30.315Z,98659.97
2022-11-16T04:05:58.736Z,98664.19
2022-11-16T04:08:26.380Z,98655.28
2022-11-16T04:10:54.324Z,98650.03
2022-11-16T04:13:27.124Z,98647.25
2022-11-16T04:15:55.071Z,98648.56
2022-11-16T04:18:23.821Z,98637.53
2022-11-16T04:20:51.721Z,98633.06
2022-11-16T04:23:21.306Z,98635.44
2022-11-16T04:25:49.936Z,98629.91
2022-11-16T04:28:20.495Z,98632.97
2022-11-16T04:30:49.749Z,98628.69
2022-11-16T04:33:17.735Z,98624.56
2022-11-16T04:35:45.488Z,98622.88
2022-11-16T04:38:14.168Z,98624.84
2022-11-16T04:40:41.795Z,98624.75
2022-11-16T04:43:11.676Z,98623.78
2022-11-16T04:45:39.699Z,98629.34
2022-11-16T04:48:10.623Z,98617.78
2022-11-16T04:50:38.988Z,98618.62
2022-11-16T04:53:08.167Z,98610.25
2022-11-16T04:55:36.893Z,98609.88
2022-11-16T04:58:05.452Z,98612.81
2022-11-16T05:00:33.361Z,98615.53
2022-11-16T05:03:01.932Z,98616.91
2022-11-16T05:05:30.166Z,98621.47
2022-11-16T05:07:58.322Z,98618.12
2022-11-16T05:10:26.603Z,98616.94
2022-11-16T05:12:55.078Z,98617.91
2022-11-16T05:15:23.320Z,98619.50
2022-11-16T05:17:51.382Z,98614.75
2022-11-16T05:20:19.623Z,98618.91
2022-11-16T05:22:55.200Z,98606.87
2022-11-16T05:25:23.551Z,98609.72
2022-11-16T05:27:51.738Z,98601.97
2022-11-16T05:30:19.500Z,98601.91
2022-11-16T05:32:47.322Z,98596.75
2022-11-16T05:35:15.664Z,98592.31
2022-11-16T05:37:43.689Z,98593.84
2022-11-16T05:40:11.701Z,98583.25
2022-11-16T05:42:39.972Z,98583.81
2022-11-16T05:45:08.147Z,98589.03
2022-11-16T05:47:35.702Z,98575.94
2022-11-16T05:50:04.025Z,98581.78
2022-11-16T05:52:31.985Z,98576.75
2022-11-16T05:55:01.140Z,98575.94
2022-11-16T05:57:30.144Z,98577.75
2022-11-16T05:59:57.782Z,98574.38
2022-11-16T06:02:25.414Z,98566.97
2022-11-16T06:04:53.313Z,98568.31
2022-11-16T06:07:21.589Z,98568.22
2022-11-16T06:09:49.521Z,98568.41
2022-11-16T06:12:18.462Z,98562.47
2022-11-16T06:14:46.074Z,98563.69
2022-11-16T06:17:13.727Z,98560.87
2022-11-16T06:19:42.076Z,98562.97
2022-11-16T06:22:09.712Z,98569.47
2022-11-16T06:24:37.308Z,98562.28
2022-11-16T06:27:05.195Z,98557.66
2022-11-16T06:29:33.550Z,98550.00
2022-11-16T06:32:01.360Z,98561.31
2022-11-16T06:34:29.238Z,98563.34
2022-11-16T06:36:57.205Z,98563.34
2022-11-16T06:39:25.004Z,98565.22
2022-11-16T06:41:53.111Z,98570.44
2022-11-16T06:44:20.932Z,98566.41
2022-11-16T06:46:49.932Z,98563.44
2022-11-16T06:49:18.708Z,98558.25
2022-11-16T06:51:46.756Z,98558.81
2022-11-16T06:54:14.442Z,98552.97
2022-11-16T06:56:42.316Z,98553.53
2022-11-16T06:59:10.070Z,98545.75
2022-11-16T07:01:38.201Z,98538.16
2022-11-16T07:04:06.424Z,98540.66
2022-11-16T07:06:33.974Z,98533.94
2022-11-16T07:09:01.786Z,98546.22
2022-11-16T07:11:30.017Z,98536.88
2022-11-16T07:13:58.102Z,98540.56
2022-11-16T07:16:26.432Z,98539.25
2022-11-16T07:18:56.358Z,98532.13
2022-11-16T07:21:24.046Z,98527.97
2022-11-16T07:23:53.156Z,98524.75
2022-11-16T07:26:21.789Z,98527.19
2022-11-16T07:28:49.954Z,98529.28
2022-11-16T07:31:18.418Z,98530.47
2022-11-16T07:33:46.979Z,98519.16
2022-11-16T07:36:16.804Z,98520.09
2022-11-16T07:38:45.061Z,98504.16
2022-11-16T07:41:18.818Z,98509.22
2022-11-16T07:43:52.817Z,98512.44
2022-11-16T07:46:46.593Z,98513.31
2022-11-16T07:49:18.588Z,98509.28
2022-11-16T07:51:46.949Z,98504.25
2022-11-16T07:54:16.372Z,98499.53
2022-11-16T07:56:43.998Z,98510.00
2022-11-16T07:59:12.556Z,98507.63
2022-11-16T08:01:40.784Z,98507.31
2022-11-16T08:04:09.866Z,98509.25
2022-11-16T08:06:37.998Z,98510.53
2022-11-16T08:09:05.794Z,98503.78
2022-11-16T08:11:34.135Z,98500.31
2022-11-16T08:14:02.066Z,98499.53
2022-11-16T08:16:29.909Z,98501.03
2022-11-16T08:19:00.479Z,98493.56
2022-11-16T08:21:28.642Z,98491.28
2022-11-16T08:23:58.750Z,98486.94
2022-11-16T08:26:27.927Z,98493.56
2022-11-16T08:28:57.009Z,98497.63
2022-11-16T08:31:27.256Z,98491.34
2022-11-16T08:33:59.903Z,98487.66
2022-11-16T08:36:28.017Z,98498.31
2022-11-16T08:38:56.220Z,98490.63
2022-11-16T08:41:24.397Z,98487.97
2022-11-16T08:43:52.243Z,98484.75
2022-11-16T08:46:20.876Z,98491.28
2022-11-16T08:48:49.440Z,98480.31
2022-11-16T08:51:18.901Z,98481.50
2022-11-16T08:53:49.543Z,98479.16
2022-11-16T08:56:22.262Z,98489.03
2022-11-16T08:58:57.854Z,98479.94
2022-11-16T09:01:29.408Z,98487.28
2022-11-16T09:03:57.408Z,98473.66
2022-11-16T09:06:25.750Z,98471.91
2022-11-16T09:08:53.696Z,98478.72
2022-11-16T09:11:23.323Z,98463.25
2022-11-16T09:13:52.503Z,98465.50
2022-11-16T09:16:20.998Z,98471.78
2022-11-16T09:18:50.199Z,98477.78
2022-11-16T09:21:22.053Z,98473.53
2022-11-16T09:23:50.603Z,98473.56
2022-11-16T09:26:19.027Z,98471.34
2022-11-16T09:28:47.439Z,98477.19
2022-11-16T09:31:18.996Z,98467.41
2022-11-16T09:33:50.690Z,98469.28
2022-11-16T09:36:18.884Z,98466.94
2022-11-16T09:39:19.158Z,98463.91
2022-11-16T09:41:53.556Z,98452.09
2022-11-16T09:44:52.954Z,98456.53
2022-11-16T09:47:24.247Z,98450.38
2022-11-16T09:50:01.614Z,98449.41
2022-11-16T09:52:38.841Z,98444.38
2022-11-16T09:55:27.979Z,98450.06
2022-11-16T09:57:57.069Z,98446.91
2022-11-16T10:00:25.758Z,98442.66
2022-11-16T10:03:06.467Z,98431.94
2022-11-16T10:06:03.044Z,98429.69
2022-11-16T10:08:41.240Z,98415.87
2022-11-16T10:11:29.237Z,98414.91
2022-11-16T10:14:18.814Z,98412.09
2022-11-16T10:17:06.925Z,98406.97
2022-11-16T10:19:34.823Z,98406.81
2022-11-16T10:22:37.654Z,98401.63
2022-11-16T10:25:24.059Z,98405.34
2022-11-16T10:27:58.840Z,98394.06
2022-11-16T10:30:27.314Z,98396.91
2022-11-16T10:33:00.991Z,98397.22
2022-11-16T10:35:34.454Z,98387.63
2022-11-16T10:38:02.564Z,98380.81
2022-11-16T10:40:36.921Z,98375.53
2022-11-16T10:43:04.335Z,98368.09
2022-11-16T10:46:04.467Z,98367.94
2022-11-16T10:48:39.997Z,98369.47
2022-11-16T10:51:09.093Z,98364.66
2022-11-16T10:53:39.087Z,98356.16
2022-11-16T10:56:21.134Z,98363.31
2022-11-16T10:59:12.834Z,98346.59
2022-11-16T11:01:41.468Z,98344.41
2022-11-16T11:04:21.254Z,98350.09
2022-11-16T11:06:53.531Z,98348.41
2022-11-16T11:09:23.254Z,98339.84
2022-11-16T11:12:17.967Z,98344.59
2022-11-16T11:15:12.610Z,98339.81
2022-11-16T11:17:45.579Z,98328.44
2022-11-16T11:20:16.048Z,98325.56
2022-11-16T11:22:52.282Z,98322.59
2022-11-16T11:25:23.893Z,98313.47
2022-11-16T11:27:51.480Z,98303.00
2022-11-16T11:30:20.561Z,98298.53
2022-11-16T11:32:48.835Z,98294.44
2022-11-16T11:35:42.929Z,98293.25
2022-11-16T11:38:14.891Z,98298.84
2022-11-16T11:40:56.106Z,98291.13
2022-11-16T11:43:24.544Z,98289.59
2022-11-16T11:46:13.938Z,98293.44
2022-11-16T11:49:06.466Z,98282.50
2022-11-16T11:51:36.834Z,98286.91
2022-11-16T11:54:05.248Z,98282.06
2022-11-16T11:56:33.353Z,98289.84
2022-11-16T11:59:03.482Z,98286.91
2022-11-16T12:01:37.443Z,98282.66
2022-11-16T12:04:08.189Z,98282.31
2022-11-16T12:06:44.069Z,98280.41
2022-11-16T12:09:31.341Z,98286.56
2022-11-16T12:12:17.715Z,98287.69
2022-11-16T12:14:51.583Z,98282.31
2022-11-16T12:17:22.079Z,98275.50
2022-11-16T12:20:22.317Z,98281.53
2022-11-16T12:23:09.175Z,98281.88
2022-11-16T12:25:48.270Z,98273.31
2022-11-16T12:28:47.127Z,98282.31
2022-11-16T12:31:39.382Z,98280.63
2022-11-16T12:34:27.439Z,98277.28
2022-11-16T12:37:15.056Z,98273.59
2022-11-16T12:39:58.440Z,98263.94
2022-11-16T12:42:26.341Z,98266.16
2022-11-16T12:45:15.321Z,98256.41
2022-11-16T12:48:01.807Z,98252.75
2022-11-16T12:50:41.157Z,98253.53
2022-11-16T12:53:39.197Z,98249.16
2022-11-16T12:56:11.244Z,98240.53
2022-11-16T12:58:55.646Z,98231.16
2022-11-16T13:01:54.061Z,98236.25
2022-11-16T13:04:34.027Z,98246.41
2022-11-16T13:07:10.631Z,98247.78
2022-11-16T13:10:07.266Z,98253.41
2022-11-16T13:12:36.289Z,98242.94
2022-11-16T13:15:05.252Z,98253.06
2022-11-16T13:17:37.170Z,98247.72
2022-11-16T13:20:16.960Z,98240.78
2022-11-16T13:23:14.378Z,98242.56
2022-11-16T13:26:01.651Z,98240.81
2022-11-16T13:28:59.381Z,98238.81
2022-11-16T13:31:35.416Z,98225.87
2022-11-16T13:34:05.974Z,98223.97
2022-11-16T13:36:36.653Z,98219.44
2022-11-16T13:39:05.715Z,98227.38
2022-11-16T13:41:40.637Z,98227.03
2022-11-16T13:44:34.852Z,98231.00
2022-11-16T13:47:04.786Z,98227.19
2022-11-16T13:49:41.498Z,98222.97
2022-11-16T13:52:41.001Z,98217.00
2022-11-16T13:55:14.403Z,98217.44
2022-11-16T13:57:50.678Z,98213.66
2022-11-16T14:00:59.301Z,98217.94
2022-11-16T14:03:32.937Z,98221.41
2022-11-16T14:06:01.147Z,98225.47
2022-11-16T14:08:34.780Z,98222.66
2022-11-16T14:11:05.426Z,98212.69
2022-11-16T14:13:36.377Z,98215.75
2022-11-16T14:16:19.005Z,98206.25
2022-11-16T14:18:49.828Z,98204.53
2022-11-16T14:21:19.986Z,98209.13
2022-11-16T14:23:56.882Z,98205.88
2022-11-16T14:26:56.753Z,98195.84
2022-11-16T14:29:50.364Z,98208.00
2022-11-16T14:32:26.294Z,98191.00
2022-11-16T14:34:56.284Z,98186.13
2022-11-16T14:37:26.685Z,98184.97
2022-11-16T14:40:13.392Z,98188.66
2022-11-16T14:45:52.257Z,98183.75
2022-11-16T14:48:21.441Z,98175.88
2022-11-16T14:51:11.538Z,98188.16
2022-11-16T14:53:48.202Z,98184.22
2022-11-16T14:56:18.083Z,98180.13
2022-11-16T14:58:56.996Z,98177.25
2022-11-16T15:01:30.283Z,98170.50
2022-11-16T15:04:09.237Z,98174.63
2022-11-16T15:06:41.947Z,98169.72
2022-11-16T15:09:16.871Z,98174.81
2022-11-16T15:11:47.709Z,98165.84
2022-11-16T15:14:22.462Z,98164.59
2022-11-16T15:16:52.127Z,98167.28
2022-11-16T15:19:20.542Z,98163.03
2022-11-16T15:21:57.303Z,98169.31
2022-11-16T15:24:34.022Z,98172.16
2022-11-16T15:27:46.787Z,98172.50
2022-11-16T15:30:20.539Z,98168.84
2022-11-16T15:32:49.871Z,98177.69
2022-11-16T15:35:28.403Z,98175.16
2022-11-16T15:38:16.809Z,98166.97
2022-11-16T15:40:54.125Z,98162.38
2022-11-16T15:43:24.220Z,98168.25
2022-11-16T15:45:52.994Z,98166.91
2022-11-16T15:48:25.128Z,98163.03
2022-11-16T15:51:06.122Z,98160.34
2022-11-16T15:53:33.925Z,98154.38
2022-11-16T15:56:10.109Z,98158.78
2022-11-16T15:58:39.554Z,98155.78
2022-11-16T16:01:08.677Z,98158.78
2022-11-16T16:03:37.734Z,98148.37
2022-11-16T16:06:06.483Z,98149.66
2022-11-16T16:08:36.231Z,98147.94
2022-11-16T16:11:26.970Z,98151.72
2022-11-16T16:13:58.785Z,98149.22
2022-11-16T16:16:38.189Z,98142.25
2022-11-16T16:19:41.607Z,98138.00
2022-11-16T16:22:25.161Z,98138.66
2022-11-16T16:24:52.856Z,98138.00
2022-11-16T16:27:23.190Z,98135.81
2022-11-16T16:29:53.072Z,98135.97
2022-11-16T16:32:24.902Z,98133.94
2022-11-16T16:34:55.013Z,98128.28
2022-11-16T16:37:23.534Z,98135.97
2022-11-16T16:39:51.305Z,98137.38
2022-11-16T16:42:18.936Z,98131.09
2022-11-16T16:44:47.555Z,98140.56
2022-11-16T16:47:15.435Z,98134.88
2022-11-16T16:49:43.292Z,98133.44
2022-11-16T16:52:14.404Z,98134.06
2022-11-16T16:54:42.173Z,98128.53
2022-11-16T16:57:16.967Z,98131.41
2022-11-16T16:59:45.701Z,98126.66
2022-11-16T17:02:13.936Z,98128.72
2022-11-16T17:04:41.677Z,98125.41
2022-11-16T17:07:10.562Z,98127.13
2022-11-16T17:09:38.357Z,98125.72
2022-11-16T17:12:07.153Z,98123.81
2022-11-16T17:14:35.068Z,98131.88
2022-11-16T17:17:03.795Z,98119.91
2022-11-16T17:19:32.829Z,98123.97
2022-11-16T17:22:01.092Z,98118.94
2022-11-16T17:24:28.758Z,98124.31
2022-11-16T17:26:56.575Z,98124.44
2022-11-16T17:29:24.583Z,98130.28
2022-11-16T17:31:52.207Z,98128.09
2022-11-16T17:34:20.053Z,98126.19
2022-11-16T17:36:49.904Z,98127.31
2022-11-16T17:39:17.989Z,98124.63
2022-11-16T17:41:45.754Z,98124.63
2022-11-16T17:44:20.163Z,98122.25
2022-11-16T17:46:49.498Z,98119.91
2022-11-16T17:49:17.722Z,98122.69
2022-11-16T17:51:45.979Z,98119.25
2022-11-16T17:54:13.940Z,98117.81
2022-11-16T17:56:42.149Z,98107.59
2022-11-16T17:59:09.980Z,98107.91
2022-11-16T18:01:37.845Z,98105.88
2022-11-16T18:04:05.987Z,98106.97
2022-11-16T18:06:34.035Z,98109.16
2022-11-16T18:09:03.297Z,98112.50
2022-11-16T18:11:31.283Z,98109.00
2022-11-16T18:14:00.725Z,98103.19
2022-11-16T18:16:30.699Z,98101.81
2022-11-16T18:19:04.657Z,98106.38
2022-11-16T18:21:38.715Z,98100.53
2022-11-16T18:24:07.486Z,98100.06
2022-11-16T18:26:35.546Z,98102.75
2022-11-16T18:29:04.509Z,98106.06
2022-11-16T18:31:33.186Z,98107.91
2022-11-16T18:34:01.454Z,98104.78
2022-11-16T18:36:29.183Z,98099.88
2022-11-16T18:38:57.491Z,98097.72
2022-11-16T18:41:25.679Z,98108.88
2022-11-16T18:43:57.133Z,98101.03
2022-11-16T18:46:34.224Z,98103.66
2022-11-16T18:49:02.328Z,98101.88
2022-11-16T18:51:30.563Z,98104.50
2022-11-16T18:53:58.168Z,98110.75
2022-11-16T18:56:26.300Z,98103.66
2022-11-16T18:58:54.917Z,98109.78
2022-11-16T19:01:24.942Z,98099.72
2022-11-16T19:03:54.018Z,98103.75
2022-11-16T19:06:23.136Z,98094.63
2022-11-16T19:08:55.983Z,98105.25
2022-11-16T19:11:25.490Z,98095.53
2022-11-16T19:13:58.514Z,98101.09
2022-11-16T19:16:27.020Z,98095.06
2022-11-16T19:18:55.183Z,98097.91
2022-11-16T19:21:23.366Z,98101.53
2022-11-16T19:23:53.652Z,98097.06
2022-11-16T19:26:23.942Z,98089.41
2022-11-16T19:28:52.763Z,98086.28
2022-11-16T19:31:21.717Z,98085.56
2022-11-16T19:33:59.089Z,98082.91
2022-11-16T19:36:28.388Z,98079.19
2022-11-16T19:38:56.121Z,98077.31
2022-11-16T19:41:24.596Z,98077.19
2022-11-16T19:43:53.693Z,98083.81
2022-11-16T19:46:21.497Z,98080.63
2022-11-16T19:48:50.971Z,98078.97
2022-11-16T19:51:22.651Z,98084.47
2022-11-16T19:53:50.643Z,98079.75
2022-11-16T19:56:20.594Z,98080.22
2022-11-16T19:58:48.905Z,98076.12
2022-11-16T20:01:25.226Z,98072.31
2022-11-16T20:03:54.733Z,98077.50
2022-11-16T20:06:25.382Z,98076.56
2022-11-16T20:08:56.046Z,98073.91
2022-11-16T20:11:29.009Z,98070.94
2022-11-16T20:13:58.167Z,98075.47
2022-11-16T20:16:32.836Z,98070.91
2022-11-16T20:19:06.344Z,98069.62
2022-11-16T20:21:43.709Z,98068.03
2022-11-16T20:24:15.804Z,98074.47
2022-11-16T20:26:48.174Z,98071.50
2022-11-16T20:29:17.661Z,98072.56
2022-11-16T20:31:46.912Z,98079.06
2022-11-16T20:34:16.455Z,98073.06
2022-11-16T20:36:45.744Z,98075.75
2022-11-16T20:39:29.495Z,98074.31
2022-11-16T20:41:57.499Z,98077.59
2022-11-16T20:44:25.351Z,98076.53
2022-11-16T20:46:53.167Z,98080.59
2022-11-16T20:49:21.302Z,98081.09
2022-11-16T20:51:49.161Z,98076.34
2022-11-16T20:54:17.112Z,98077.41
2022-11-16T20:56:45.216Z,98066.91
2022-11-16T20:59:13.065Z,98061.88
2022-11-16T21:01:40.765Z,98051.94
2022-11-16T21:04:08.912Z,98054.28
2022-11-16T21:06:36.477Z,98057.94
2022-11-16T21:09:04.310Z,98063.19
2022-11-16T21:11:33.775Z,98059.09
2022-11-16T21:14:01.671Z,98054.22
2022-11-16T21:16:30.774Z,98052.97
2022-11-16T21:19:01.391Z,98055.72
2022-11-16T21:21:29.408Z,98053.22
2022-11-16T21:23:57.036Z,98052.34
2022-11-16T21:26:29.503Z,98056.87
2022-11-16T21:28:58.281Z,98063.81
2022-11-16T21:31:28.184Z,98062.25
2022-11-16T21:33:57.790Z,98059.72
2022-11-16T21:36:26.921Z,98049.47
2022-11-16T21:38:55.307Z,98044.09
2022-11-16T21:41:23.869Z,98055.53
2022-11-16T21:43:51.673Z,98049.91
2022-11-16T21:46:24.471Z,98060.16
2022-11-16T21:48:52.227Z,98054.88
2022-11-16T21:51:21.722Z,98046.62
2022-11-16T21:53:49.570Z,98039.41
2022-11-16T21:56:19.324Z,98033.97
2022-11-16T21:58:47.364Z,98035.72
2022-11-16T22:01:16.526Z,98033.19
2022-11-16T22:03:44.956Z,98026.25
2022-11-16T22:06:14.298Z,98025.03
2022-11-16T22:08:42.312Z,98026.34
2022-11-16T22:11:10.592Z,98028.16
2022-11-16T22:13:38.397Z,98018.00
2022-11-16T22:16:10.227Z,98008.38
2022-11-16T22:18:38.813Z,98019.22
2022-11-16T22:21:06.545Z,98017.06
2022-11-16T22:23:34.662Z,98010.09
2022-11-16T22:26:05.568Z,98010.69
2022-11-16T22:28:33.604Z,98015.88
2022-11-16T22:31:12.577Z,98023.91
2022-11-16T22:33:41.202Z,98037.50
2022-11-16T22:36:12.176Z,98035.72
2022-11-16T22:38:39.998Z,98027.50
2022-11-16T22:41:07.661Z,98016.59
2022-11-16T22:43:35.740Z,98032.91
2022-11-16T22:46:05.324Z,98030.72
2022-11-16T22:48:34.970Z,98030.00
2022-11-16T22:51:12.486Z,98014.84
2022-11-16T22:53:40.555Z,98023.88
2022-11-16T22:56:09.561Z,98030.66
2022-11-16T22:58:38.355Z,98044.22
2022-11-16T23:01:08.599Z,98049.00
2022-11-16T23:03:37.372Z,98045.59
2022-11-16T23:06:06.136Z,98044.34
2022-11-16T23:08:35.506Z,98043.06
2022-11-16T23:11:04.613Z,98036.09
2022-11-16T23:13:32.453Z,98031.75
2022-11-16T23:16:04.398Z,98024.03
2022-11-16T23:18:32.131Z,98022.16
2022-11-16T23:21:00.584Z,98020.19
2022-11-16T23:23:28.321Z,98019.34
2022-11-16T23:25:56.090Z,98024.75
2022-11-16T23:28:24.068Z,98025.06
2022-11-16T23:30:51.864Z,98023.19
2022-11-16T23:33:19.753Z,98025.88
2022-11-16T23:35:47.629Z,98020.16
2022-11-16T23:38:15.272Z,98022.75
2022-11-16T23:40:43.111Z,98023.03
2022-11-16T23:43:11.138Z,98017.06
2022-11-16T23:45:40.104Z,98009.94
2022-11-16T23:48:08.948Z,98001.53
2022-11-16T23:50:37.542Z,98010.41
2022-11-16T23:53:06.237Z,98010.72
2022-11-16T23:55:34.682Z,98009.63
2022-11-16T23:58:03.585Z,98008.22
